createdAt,value
2019-05-15T00:03:08.799Z,22.63
2019-05-15T00:08:12.359Z,22.63
2019-05-15T00:13:15.819Z,22.63
2019-05-15T00:18:19.282Z,22.62
2019-05-15T00:23:22.750Z,22.62
2019-05-15T00:28:28.038Z,22.62
2019-05-15T00:38:33.944Z,22.61
2019-05-15T00:43:38.649Z,22.61
2019-05-15T00:53:44.730Z,22.60
2019-05-15T00:58:48.293Z,22.60
2019-05-15T01:03:51.717Z,22.60
2019-05-15T01:08:55.184Z,22.59
2019-05-15T01:13:58.700Z,22.59
2019-05-15T01:19:02.177Z,22.59
2019-05-15T01:24:05.645Z,22.59
2019-05-15T01:29:09.212Z,22.59
2019-05-15T01:34:12.679Z,22.58
2019-05-15T01:39:18.327Z,22.58
2019-05-15T01:44:21.367Z,22.58
2019-05-15T01:49:24.909Z,22.57
2019-05-15T01:54:29.025Z,22.57
2019-05-15T01:59:32.653Z,22.57
2019-05-15T02:04:36.140Z,22.57
2019-05-15T02:09:39.603Z,22.57
2019-05-15T02:14:43.076Z,22.57
2019-05-15T02:19:48.486Z,22.56
2019-05-15T02:24:51.837Z,22.56
2019-05-15T02:30:15.265Z,22.55
2019-05-15T02:35:00.560Z,22.54
2019-05-15T02:40:05.182Z,22.55
2019-05-15T02:45:10.315Z,22.54
2019-05-15T02:50:14.675Z,22.56
2019-05-15T02:55:19.665Z,22.56
2019-05-15T03:00:37.791Z,22.57
2019-05-15T03:05:29.566Z,22.57
2019-05-15T03:10:33.200Z,22.57
2019-05-15T03:15:39.760Z,22.57
2019-05-15T03:20:41.862Z,22.56
2019-05-15T03:25:48.910Z,22.55
2019-05-15T03:31:15.816Z,22.55
2019-05-15T03:36:01.747Z,22.54
2019-05-15T03:41:01.562Z,22.54
2019-05-15T03:46:05.020Z,22.52
2019-05-15T03:51:09.384Z,22.52
2019-05-15T03:56:13.071Z,22.52
2019-05-15T04:01:30.215Z,22.50
2019-05-15T04:06:21.982Z,22.50
2019-05-15T04:11:25.439Z,22.49
2019-05-15T04:16:29.657Z,22.49
2019-05-15T04:21:33.234Z,22.48
2019-05-15T04:26:39.436Z,22.47
2019-05-15T04:31:55.681Z,22.47
2019-05-15T04:36:49.795Z,22.46
2019-05-15T04:41:53.494Z,22.45
2019-05-15T04:46:59.502Z,22.45
2019-05-15T04:52:03.689Z,22.45
2019-05-15T04:57:09.268Z,22.43
2019-05-15T05:02:24.262Z,22.43
2019-05-15T05:07:18.944Z,22.43
2019-05-15T05:12:22.485Z,22.43
2019-05-15T05:17:28.673Z,22.42
2019-05-15T05:22:31.137Z,22.42
2019-05-15T05:27:34.604Z,22.42
2019-05-15T05:32:38.838Z,22.41
2019-05-15T05:37:42.799Z,22.41
2019-05-15T05:42:47.999Z,22.41
2019-05-15T05:47:51.592Z,22.40
2019-05-15T05:52:55.050Z,22.40
2019-05-15T05:57:58.528Z,22.42
2019-05-15T06:03:01.984Z,22.41
2019-05-15T06:08:07.994Z,22.41
2019-05-15T06:13:11.613Z,22.41
2019-05-15T06:18:15.460Z,22.42
2019-05-15T06:23:23.450Z,22.41
2019-05-15T06:28:24.581Z,22.41
2019-05-15T06:33:28.052Z,22.42
2019-05-15T06:38:31.512Z,22.42
2019-05-15T06:43:34.975Z,22.33
2019-05-15T06:48:38.481Z,21.49
2019-05-15T06:53:41.967Z,21.09
2019-05-15T06:58:45.433Z,20.87
2019-05-15T07:03:48.906Z,20.56
2019-05-15T07:08:52.381Z,20.24
2019-05-15T07:13:57.907Z,20.24
2019-05-15T07:19:01.054Z,20.53
2019-05-15T07:24:04.599Z,20.68
2019-05-15T07:29:08.083Z,20.77
2019-05-15T07:34:11.552Z,20.85
2019-05-15T07:39:15.028Z,20.91
2019-05-15T07:44:18.984Z,20.98
2019-05-15T07:49:23.555Z,21.02
2019-05-15T07:54:28.847Z,21.09
2019-05-15T07:59:32.222Z,21.15
2019-05-15T08:04:37.923Z,21.21
2019-05-15T08:09:40.905Z,21.26
2019-05-15T08:14:47.355Z,21.30
2019-05-15T08:19:49.761Z,21.35
2019-05-15T08:24:53.239Z,21.40
2019-05-15T08:29:58.103Z,21.45
2019-05-15T08:35:01.681Z,21.50
2019-05-15T08:40:08.629Z,21.55
2019-05-15T08:45:12.445Z,21.61
2019-05-15T08:50:18.128Z,21.66
2019-05-15T08:55:21.256Z,21.71
2019-05-15T09:00:24.900Z,21.74
2019-05-15T09:05:28.379Z,21.78
2019-05-15T09:10:31.859Z,21.79
2019-05-15T09:15:35.332Z,21.83
2019-05-15T09:20:38.847Z,21.85
2019-05-15T09:25:42.559Z,21.87
2019-05-15T09:30:48.136Z,21.88
2019-05-15T09:35:51.232Z,21.89
2019-05-15T09:40:54.711Z,21.90
2019-05-15T09:45:58.491Z,21.92
2019-05-15T09:51:02.032Z,21.93
2019-05-15T09:56:07.987Z,21.93
2019-05-15T10:01:10.925Z,21.96
2019-05-15T10:06:14.527Z,21.96
2019-05-15T10:11:19.869Z,21.98
2019-05-15T10:16:23.516Z,22.00
2019-05-15T10:21:32.131Z,22.02
2019-05-15T10:26:32.248Z,22.02
2019-05-15T10:31:35.724Z,22.04
2019-05-15T10:36:39.228Z,22.07
2019-05-15T10:41:42.700Z,22.09
2019-05-15T10:46:48.240Z,22.11
2019-05-15T10:51:51.387Z,22.12
2019-05-15T10:56:54.860Z,22.13
2019-05-15T11:01:59.094Z,22.14
2019-05-15T11:07:02.703Z,22.17
2019-05-15T11:12:08.604Z,22.16
2019-05-15T11:17:11.382Z,22.16
2019-05-15T11:22:14.893Z,22.17
2019-05-15T11:27:19.096Z,22.17
2019-05-15T11:32:22.703Z,22.18
2019-05-15T11:37:28.247Z,22.19
2019-05-15T11:42:31.382Z,22.18
2019-05-15T11:47:34.861Z,22.19
2019-05-15T11:52:40.317Z,22.18
2019-05-15T11:57:47.702Z,22.20
2019-05-15T12:02:48.987Z,22.20
2019-05-15T12:07:52.468Z,22.21
2019-05-15T12:12:55.943Z,22.22
2019-05-15T12:17:59.421Z,22.14
2019-05-15T12:23:02.899Z,21.15
2019-05-15T12:28:09.563Z,20.88
2019-05-15T12:33:11.648Z,21.13
2019-05-15T12:38:15.127Z,21.35
2019-05-15T13:03:39.397Z,21.66
2019-05-15T13:08:42.876Z,21.68
2019-05-15T13:13:48.370Z,21.70
2019-05-15T13:18:51.578Z,21.72
2019-05-15T13:23:55.043Z,21.75
2019-05-15T13:28:58.643Z,21.80
2019-05-15T13:34:02.064Z,21.84
2019-05-15T13:39:06.692Z,21.88
2019-05-15T13:44:10.156Z,21.98
2019-05-15T13:49:13.633Z,21.94
2019-05-15T13:54:18.739Z,22.01
2019-05-15T13:59:22.384Z,22.03
2019-05-15T14:04:25.877Z,22.08
2019-05-15T14:09:33.904Z,22.17
2019-05-15T14:14:34.564Z,22.23
2019-05-15T14:19:38.617Z,22.27
2019-05-15T14:24:42.198Z,22.30
2019-05-15T14:29:45.687Z,22.34
2019-05-15T14:34:51.121Z,22.37
2019-05-15T14:39:54.771Z,22.40
2019-05-15T14:44:59.247Z,22.42
2019-05-15T14:50:03.407Z,22.45
2019-05-15T14:55:07.631Z,22.47
2019-05-15T15:00:11.635Z,22.45
2019-05-15T15:05:15.280Z,22.45
2019-05-15T15:10:20.122Z,22.44
2019-05-15T15:15:24.003Z,22.43
2019-05-15T15:20:28.555Z,22.42
2019-05-15T15:25:32.228Z,22.42
2019-05-15T15:30:37.941Z,22.41
2019-05-15T15:35:40.904Z,22.39
2019-05-15T15:40:44.390Z,22.39
2019-05-15T15:45:48.371Z,22.39
2019-05-15T15:50:51.931Z,22.39
2019-05-15T15:55:55.411Z,22.39
2019-05-15T16:00:58.890Z,22.39
2019-05-15T16:06:02.360Z,22.40
2019-05-15T16:11:08.310Z,22.40
2019-05-15T16:16:11.859Z,22.40
2019-05-15T16:21:15.337Z,22.44
2019-05-15T16:26:19.462Z,22.46
2019-05-15T16:31:23.168Z,22.45
2019-05-15T16:36:26.660Z,22.47
2019-05-15T16:41:30.120Z,22.48
2019-05-15T16:46:33.582Z,22.48
2019-05-15T16:51:38.351Z,22.53
2019-05-15T16:56:41.964Z,22.55
2019-05-15T17:01:45.423Z,22.51
2019-05-15T17:06:49.473Z,22.48
2019-05-15T17:11:53.017Z,22.48
2019-05-15T17:16:58.628Z,22.48
2019-05-15T17:22:01.934Z,22.47
2019-05-15T17:27:08.282Z,22.50
2019-05-15T17:32:10.864Z,22.51
2019-05-15T17:37:14.332Z,22.52
2019-05-15T17:42:18.338Z,22.52
2019-05-15T17:47:21.900Z,22.51
2019-05-15T17:52:25.357Z,22.48
2019-05-15T17:57:28.812Z,22.47
2019-05-15T18:02:32.278Z,22.45
2019-05-15T18:07:35.732Z,22.44
2019-05-15T18:12:39.195Z,22.44
2019-05-15T18:17:42.660Z,22.44
2019-05-15T18:22:48.115Z,22.43
2019-05-15T18:27:51.640Z,22.42
2019-05-15T18:32:55.175Z,22.44
2019-05-15T18:37:59.219Z,22.44
2019-05-15T18:43:02.902Z,22.43
2019-05-15T18:48:06.353Z,22.43
2019-05-15T18:53:10.983Z,22.42
2019-05-15T18:58:19.020Z,22.41
2019-05-15T19:03:23.434Z,22.42
2019-05-15T19:08:28.415Z,22.41
2019-05-15T19:13:31.942Z,22.41
2019-05-15T19:18:35.402Z,22.42
2019-05-15T19:23:40.439Z,22.42
2019-05-15T19:28:44.007Z,22.41
2019-05-15T19:33:47.495Z,22.41
2019-05-15T19:38:50.935Z,22.41
2019-05-15T19:43:57.995Z,22.41
2019-05-15T19:49:01.050Z,22.42
2019-05-15T19:54:04.777Z,22.42
2019-05-15T19:59:08.807Z,22.43
2019-05-15T20:04:12.388Z,22.42
2019-05-15T20:09:15.844Z,22.42
2019-05-15T20:14:19.902Z,22.41
2019-05-15T20:19:23.383Z,22.41
2019-05-15T20:24:28.741Z,22.41
2019-05-15T20:29:32.039Z,22.42
2019-05-15T20:34:37.818Z,22.41
2019-05-15T20:39:40.961Z,22.41
2019-05-15T20:44:44.443Z,22.40
2019-05-15T20:49:48.507Z,22.42
2019-05-15T20:54:52.151Z,22.41
2019-05-15T20:59:55.648Z,22.41
2019-05-15T21:05:00.623Z,22.41
2019-05-15T21:10:08.517Z,22.39
2019-05-15T21:15:12.005Z,22.40
2019-05-15T21:20:17.708Z,22.40
2019-05-15T21:25:20.869Z,22.40
2019-05-15T21:30:24.323Z,22.39
2019-05-15T21:35:30.397Z,22.39
2019-05-15T21:40:32.990Z,22.39
2019-05-15T21:45:37.573Z,22.39
2019-05-15T21:50:41.656Z,22.38
2019-05-15T21:55:45.388Z,22.38
2019-05-15T22:00:52.071Z,22.38
2019-05-15T22:05:58.039Z,22.38
2019-05-15T22:11:00.958Z,22.39
2019-05-15T22:16:04.584Z,22.38
2019-05-15T22:21:08.087Z,22.37
2019-05-15T22:26:11.505Z,22.37
2019-05-15T22:31:14.962Z,22.37
2019-05-15T22:36:18.943Z,22.36
2019-05-15T22:41:22.468Z,22.37
2019-05-15T22:46:25.923Z,22.38
2019-05-15T22:51:29.663Z,22.38
2019-05-15T22:56:33.212Z,22.37
2019-05-15T23:01:38.799Z,22.37
2019-05-15T23:06:41.860Z,22.36
2019-05-15T23:11:45.318Z,22.36
2019-05-15T23:16:48.815Z,22.35
2019-05-15T23:21:52.240Z,22.35
2019-05-15T23:26:55.703Z,22.34
2019-05-15T23:31:59.235Z,22.34
2019-05-15T23:37:02.691Z,22.34
2019-05-15T23:42:06.148Z,22.33
2019-05-15T23:47:09.604Z,22.32
2019-05-15T23:52:13.106Z,22.32
2019-05-15T23:57:17.959Z,22.32
